createdAt,value
2023-01-23T00:01:31.895Z,66.79
2023-01-23T00:03:59.076Z,66.33
2023-01-23T00:06:26.985Z,66.86
2023-01-23T00:08:56.174Z,66.88
2023-01-23T00:11:27.746Z,66.93
2023-01-23T00:13:54.267Z,67.11
2023-01-23T00:16:24.205Z,66.99
2023-01-23T00:18:51.791Z,67.34
2023-01-23T00:21:24.896Z,67.23
2023-01-23T00:23:54.931Z,67.35
2023-01-23T00:26:25.865Z,67.51
2023-01-23T00:28:53.783Z,67.79
2023-01-23T00:31:27.959Z,67.32
2023-01-23T00:34:05.511Z,67.89
2023-01-23T00:36:38.852Z,68.64
2023-01-23T00:39:14.385Z,68.94
2023-01-23T00:41:41.047Z,68.54
2023-01-23T00:44:07.565Z,69.01
2023-01-23T00:46:34.899Z,68.44
2023-01-23T00:49:01.613Z,68.58
2023-01-23T00:51:28.277Z,69.12
2023-01-23T00:53:56.177Z,69.05
2023-01-23T00:56:23.031Z,69.60
2023-01-23T00:58:49.785Z,69.77
2023-01-23T01:01:17.019Z,69.32
2023-01-23T01:03:44.334Z,69.51
2023-01-23T01:06:12.514Z,69.01
2023-01-23T01:08:39.347Z,68.73
2023-01-23T01:11:06.612Z,68.11
2023-01-23T01:13:33.450Z,67.98
2023-01-23T01:16:01.984Z,68.30
2023-01-23T01:18:30.089Z,68.90
2023-01-23T01:20:57.280Z,69.16
2023-01-23T01:23:23.967Z,69.40
2023-01-23T01:25:50.519Z,69.32
2023-01-23T01:28:17.375Z,68.64
2023-01-23T01:30:44.078Z,68.66
2023-01-23T01:33:11.144Z,68.44
2023-01-23T01:35:41.192Z,67.70
2023-01-23T01:38:08.876Z,67.19
2023-01-23T01:40:36.960Z,67.16
2023-01-23T01:43:09.611Z,66.77
2023-01-23T01:46:26.191Z,66.73
2023-01-23T01:49:01.752Z,66.64
2023-01-23T01:51:52.674Z,67.04
2023-01-23T01:54:46.889Z,68.10
2023-01-23T01:57:22.540Z,68.56
2023-01-23T02:00:22.022Z,68.39
2023-01-23T02:03:01.317Z,68.83
2023-01-23T02:05:37.877Z,68.32
2023-01-23T02:08:20.130Z,68.66
2023-01-23T02:10:47.216Z,69.43
2023-01-23T02:13:30.276Z,68.87
2023-01-23T02:15:59.810Z,68.98
2023-01-23T02:18:29.952Z,68.58
2023-01-23T02:21:01.551Z,68.47
2023-01-23T02:24:16.789Z,68.00
2023-01-23T02:26:46.563Z,68.02
2023-01-23T02:29:15.469Z,68.45
2023-01-23T02:31:45.832Z,68.55
2023-01-23T02:34:14.729Z,68.41
2023-01-23T02:36:47.395Z,68.40
2023-01-23T02:39:18.471Z,68.03
2023-01-23T02:41:51.308Z,68.26
2023-01-23T02:44:28.550Z,68.65
2023-01-23T02:47:05.059Z,68.51
2023-01-23T02:49:31.723Z,67.85
2023-01-23T02:51:58.357Z,67.90
2023-01-23T02:54:25.642Z,68.02
2023-01-23T02:56:52.268Z,68.67
2023-01-23T02:59:37.334Z,68.85
2023-01-23T03:02:05.378Z,69.48
2023-01-23T03:04:32.086Z,69.56
2023-01-23T03:06:59.196Z,69.08
2023-01-23T03:09:26.638Z,68.71
2023-01-23T03:11:53.304Z,67.89
2023-01-23T03:14:23.378Z,67.65
2023-01-23T03:16:51.461Z,67.30
2023-01-23T03:19:24.435Z,67.05
2023-01-23T03:21:51.882Z,67.28
2023-01-23T03:24:20.256Z,67.88
2023-01-23T03:26:48.655Z,68.73
2023-01-23T03:29:37.963Z,69.27
2023-01-23T03:32:05.695Z,70.08
2023-01-23T03:34:32.464Z,69.90
2023-01-23T03:37:00.364Z,69.52
2023-01-23T03:39:46.184Z,69.28
2023-01-23T03:42:12.697Z,70.19
2023-01-23T03:44:39.321Z,69.71
2023-01-23T03:47:07.121Z,69.25
2023-01-23T03:49:33.781Z,68.82
2023-01-23T03:52:00.715Z,68.36
2023-01-23T03:54:27.669Z,69.00
2023-01-23T03:56:54.691Z,69.27
2023-01-23T03:59:21.323Z,69.51
2023-01-23T04:01:48.186Z,70.06
2023-01-23T04:04:14.775Z,70.25
2023-01-23T04:06:41.221Z,69.88
2023-01-23T04:09:07.729Z,69.23
2023-01-23T04:11:34.202Z,68.68
2023-01-23T04:14:00.723Z,68.41
2023-01-23T04:16:28.631Z,68.54
2023-01-23T04:18:55.286Z,69.48
2023-01-23T04:21:22.034Z,69.05
2023-01-23T04:23:48.472Z,68.89
2023-01-23T04:26:15.364Z,68.33
2023-01-23T04:28:41.894Z,68.01
2023-01-23T04:31:09.485Z,67.38
2023-01-23T04:33:36.338Z,67.27
2023-01-23T04:36:06.755Z,66.98
2023-01-23T04:38:33.873Z,67.48
2023-01-23T04:41:00.711Z,67.98
2023-01-23T04:43:27.349Z,68.23
2023-01-23T04:45:56.128Z,67.50
2023-01-23T04:48:23.852Z,67.38
2023-01-23T04:50:51.396Z,67.45
2023-01-23T04:53:18.249Z,68.05
2023-01-23T04:55:49.143Z,68.13
2023-01-23T04:58:17.987Z,69.14
2023-01-23T05:00:44.794Z,69.79
2023-01-23T05:03:11.339Z,69.08
2023-01-23T05:05:37.801Z,68.99
2023-01-23T05:08:04.719Z,68.58
2023-01-23T05:10:31.602Z,69.16
2023-01-23T05:12:58.074Z,69.00
2023-01-23T05:15:24.529Z,68.60
2023-01-23T05:17:51.058Z,67.73
2023-01-23T05:20:17.929Z,67.35
2023-01-23T05:22:52.296Z,67.17
2023-01-23T05:25:29.139Z,66.94
2023-01-23T05:27:55.731Z,67.00
2023-01-23T05:30:23.375Z,66.55
2023-01-23T05:32:50.420Z,66.79
2023-01-23T05:35:17.400Z,67.07
2023-01-23T05:37:43.952Z,68.11
2023-01-23T05:40:13.312Z,68.13
2023-01-23T05:42:39.843Z,68.75
2023-01-23T05:45:06.998Z,68.70
2023-01-23T05:47:33.643Z,67.92
2023-01-23T05:50:01.001Z,67.88
2023-01-23T05:52:28.211Z,68.02
2023-01-23T05:54:54.869Z,68.07
2023-01-23T05:57:22.267Z,67.62
2023-01-23T05:59:48.720Z,68.46
2023-01-23T06:02:15.869Z,68.92
2023-01-23T06:04:42.418Z,69.14
2023-01-23T06:07:15.081Z,69.23
2023-01-23T06:09:41.621Z,68.93
2023-01-23T06:12:09.682Z,68.91
2023-01-23T06:14:36.620Z,68.60
2023-01-23T06:17:03.539Z,67.79
2023-01-23T06:19:30.093Z,68.65
2023-01-23T06:21:56.598Z,68.57
2023-01-23T06:24:23.091Z,68.59
2023-01-23T06:26:49.749Z,68.51
2023-01-23T06:29:16.255Z,68.41
2023-01-23T06:31:42.912Z,67.73
2023-01-23T06:34:09.446Z,67.76
2023-01-23T06:36:36.128Z,67.71
2023-01-23T06:39:02.996Z,67.54
2023-01-23T06:41:29.544Z,67.83
2023-01-23T06:43:56.496Z,67.78
2023-01-23T06:46:23.811Z,67.23
2023-01-23T06:48:52.329Z,67.30
2023-01-23T06:51:19.072Z,67.23
2023-01-23T06:53:45.570Z,67.33
2023-01-23T06:56:12.736Z,67.22
2023-01-23T06:58:39.384Z,67.06
2023-01-23T07:01:12.127Z,66.77
2023-01-23T07:03:38.883Z,66.30
2023-01-23T07:06:07.097Z,66.40
2023-01-23T07:08:34.688Z,66.59
2023-01-23T07:11:02.640Z,67.18
2023-01-23T07:13:30.260Z,66.74
2023-01-23T07:15:56.940Z,66.71
2023-01-23T07:18:25.077Z,66.77
2023-01-23T07:20:51.549Z,66.85
2023-01-23T07:23:18.046Z,66.78
2023-01-23T07:25:44.723Z,66.80
2023-01-23T07:28:11.562Z,66.34
2023-01-23T07:30:38.442Z,66.91
2023-01-23T07:33:06.387Z,66.44
2023-01-23T07:35:33.365Z,66.14
2023-01-23T07:37:59.885Z,66.58
2023-01-23T07:40:26.418Z,65.92
2023-01-23T07:42:52.893Z,65.12
2023-01-23T07:45:19.353Z,65.79
2023-01-23T07:47:45.957Z,65.49
2023-01-23T07:50:15.056Z,65.82
2023-01-23T07:52:41.547Z,66.13
2023-01-23T07:55:08.518Z,66.01
2023-01-23T07:57:35.098Z,66.70
2023-01-23T08:00:01.825Z,66.70
2023-01-23T08:02:28.443Z,67.09
2023-01-23T08:04:54.928Z,66.85
2023-01-23T08:07:21.468Z,66.76
2023-01-23T08:09:47.997Z,66.51
2023-01-23T08:12:14.531Z,66.84
2023-01-23T08:14:41.213Z,66.57
2023-01-23T08:17:07.724Z,66.30
2023-01-23T08:19:34.183Z,66.18
2023-01-23T08:22:00.690Z,65.82
2023-01-23T08:24:27.203Z,65.81
2023-01-23T08:26:53.672Z,65.53
2023-01-23T08:29:20.197Z,65.40
2023-01-23T08:31:46.806Z,65.81
2023-01-23T08:34:13.492Z,65.68
2023-01-23T08:36:40.035Z,65.29
2023-01-23T08:39:06.524Z,65.33
2023-01-23T08:41:33.074Z,65.43
2023-01-23T08:44:01.641Z,65.51
2023-01-23T08:46:29.429Z,65.33
2023-01-23T08:48:56.113Z,65.00
2023-01-23T08:51:22.709Z,65.26
2023-01-23T08:53:53.119Z,64.91
2023-01-23T08:56:23.108Z,64.55
2023-01-23T08:58:50.928Z,63.67
2023-01-23T09:01:24.389Z,63.75
2023-01-23T09:03:51.259Z,63.78
2023-01-23T09:06:21.429Z,64.47
2023-01-23T09:08:48.066Z,64.74
2023-01-23T09:11:16.107Z,64.90
2023-01-23T09:13:42.976Z,65.19
2023-01-23T09:16:10.238Z,65.26
2023-01-23T09:18:37.304Z,65.29
2023-01-23T09:21:11.291Z,64.76
2023-01-23T09:23:38.326Z,64.68
2023-01-23T09:26:08.827Z,64.68
2023-01-23T09:28:37.268Z,64.29
2023-01-23T09:31:07.257Z,63.79
2023-01-23T09:33:34.928Z,64.04
2023-01-23T09:36:02.303Z,63.78
2023-01-23T09:38:28.965Z,63.79
2023-01-23T09:40:59.504Z,63.93
2023-01-23T09:43:47.005Z,63.16
2023-01-23T09:46:28.573Z,62.93
2023-01-23T09:49:10.295Z,62.17
2023-01-23T09:52:05.704Z,62.16
2023-01-23T09:55:02.031Z,62.79
2023-01-23T09:57:42.628Z,63.01
2023-01-23T10:00:25.978Z,63.02
2023-01-23T10:02:56.771Z,62.67
2023-01-23T10:05:44.033Z,62.25
2023-01-23T10:08:36.423Z,62.55
2023-01-23T10:11:31.079Z,61.96
2023-01-23T10:14:47.275Z,61.78
2023-01-23T10:17:44.873Z,62.38
2023-01-23T10:20:36.888Z,62.14
2023-01-23T10:23:18.858Z,61.94
2023-01-23T10:25:46.459Z,61.76
2023-01-23T10:28:38.731Z,61.48
2023-01-23T10:31:26.288Z,61.08
2023-01-23T10:34:07.364Z,61.16
2023-01-23T10:37:00.456Z,61.23
2023-01-23T10:39:40.670Z,61.34
2023-01-23T10:42:13.720Z,61.17
2023-01-23T10:44:40.315Z,61.15
2023-01-23T10:47:24.181Z,60.53
2023-01-23T10:49:51.225Z,61.07
2023-01-23T10:52:36.566Z,61.22
2023-01-23T10:55:30.997Z,61.09
2023-01-23T10:58:03.762Z,61.07
2023-01-23T11:00:39.164Z,61.85
2023-01-23T11:03:20.975Z,61.62
2023-01-23T11:06:16.330Z,62.38
2023-01-23T11:09:04.691Z,61.93
2023-01-23T11:11:33.128Z,62.31
2023-01-23T11:14:13.752Z,61.59
2023-01-23T11:16:40.692Z,62.33
2023-01-23T11:19:07.032Z,62.08
2023-01-23T11:21:37.613Z,62.22
2023-01-23T11:24:08.230Z,61.94
2023-01-23T11:26:38.278Z,62.24
2023-01-23T11:29:25.781Z,61.83
2023-01-23T11:32:05.693Z,61.38
2023-01-23T11:34:44.120Z,61.29
2023-01-23T11:37:28.102Z,60.90
2023-01-23T11:40:18.617Z,60.95
2023-01-23T11:42:46.467Z,60.98
2023-01-23T11:45:43.635Z,60.39
2023-01-23T11:48:36.168Z,60.95
2023-01-23T11:51:24.517Z,60.93
2023-01-23T11:54:18.468Z,61.34
2023-01-23T11:57:18.560Z,60.78
2023-01-23T12:00:13.127Z,60.83
2023-01-23T12:03:21.502Z,60.83
2023-01-23T12:06:20.540Z,60.70
2023-01-23T12:09:12.346Z,60.61
2023-01-23T12:11:57.209Z,60.93
2023-01-23T12:14:42.547Z,60.57
2023-01-23T12:17:27.047Z,60.92
2023-01-23T12:20:18.951Z,60.88
2023-01-23T12:23:18.675Z,60.75
2023-01-23T12:26:11.875Z,60.73
2023-01-23T12:28:44.156Z,60.38
2023-01-23T12:31:47.324Z,60.34
2023-01-23T12:34:19.429Z,59.95
2023-01-23T12:37:29.883Z,59.90
2023-01-23T12:40:33.937Z,60.10
2023-01-23T12:43:32.438Z,60.64
2023-01-23T12:46:11.304Z,61.58
2023-01-23T12:49:15.300Z,61.43
2023-01-23T12:51:50.708Z,61.55
2023-01-23T12:54:35.941Z,61.12
2023-01-23T12:57:06.259Z,60.52
2023-01-23T12:59:55.593Z,59.98
2023-01-23T13:02:55.279Z,59.75
2023-01-23T13:05:52.855Z,59.72
2023-01-23T13:09:00.119Z,59.87
2023-01-23T13:11:53.285Z,60.01
2023-01-23T13:14:36.839Z,60.04
2023-01-23T13:17:38.442Z,60.17
2023-01-23T13:20:40.492Z,60.16
2023-01-23T13:23:30.231Z,61.13
2023-01-23T13:26:15.425Z,60.51
2023-01-23T13:28:56.731Z,60.75
2023-01-23T13:31:47.082Z,59.80
2023-01-23T13:34:16.732Z,60.77
2023-01-23T13:36:48.742Z,60.51
2023-01-23T13:39:18.265Z,60.57
2023-01-23T13:41:47.740Z,60.60
2023-01-23T13:44:27.094Z,60.73
2023-01-23T14:22:36.633Z,60.89
2023-01-23T14:25:03.923Z,60.70
2023-01-23T14:27:52.124Z,60.87
2023-01-23T14:30:26.790Z,61.78
2023-01-23T14:32:53.716Z,61.92
2023-01-23T14:35:31.277Z,62.18
2023-01-23T14:38:06.452Z,62.25
2023-01-23T14:40:48.934Z,62.67
2023-01-23T14:43:26.625Z,62.96
2023-01-23T14:46:02.799Z,62.81
2023-01-23T14:48:36.512Z,62.26
2023-01-23T14:51:24.619Z,62.32
2023-01-23T14:54:01.763Z,62.63
2023-01-23T14:56:37.762Z,62.27
2023-01-23T14:59:23.185Z,62.33
2023-01-23T15:02:05.284Z,61.38
2023-01-23T15:04:36.807Z,61.07
2023-01-23T15:07:03.401Z,60.76
2023-01-23T15:09:41.436Z,60.91
2023-01-23T15:12:17.330Z,60.44
2023-01-23T15:14:45.385Z,60.25
2023-01-23T15:17:18.243Z,60.70
2023-01-23T15:19:56.537Z,61.77
2023-01-23T15:22:30.064Z,61.78
2023-01-23T15:24:57.186Z,62.33
2023-01-23T15:27:37.266Z,61.56
2023-01-23T15:30:44.938Z,61.90
2023-01-23T15:33:31.795Z,61.87
2023-01-23T15:36:05.909Z,62.16
2023-01-23T15:38:33.092Z,62.32
2023-01-23T15:40:59.870Z,62.42
2023-01-23T15:43:26.544Z,62.53
2023-01-23T15:45:53.737Z,61.96
2023-01-23T15:48:20.492Z,61.92
2023-01-23T15:50:47.145Z,62.06
2023-01-23T15:53:14.794Z,61.92
2023-01-23T15:55:41.431Z,62.13
2023-01-23T15:58:14.831Z,62.04
2023-01-23T16:00:41.726Z,62.00
2023-01-23T16:03:08.430Z,61.47
2023-01-23T16:05:37.450Z,61.52
2023-01-23T16:08:09.176Z,61.91
2023-01-23T16:10:39.124Z,62.56
2023-01-23T16:13:07.514Z,62.78
2023-01-23T16:15:35.929Z,63.08
2023-01-23T16:18:04.506Z,63.87
2023-01-23T16:20:45.140Z,63.28
2023-01-23T16:23:31.288Z,63.15
2023-01-23T16:26:02.629Z,63.53
2023-01-23T16:28:30.057Z,63.48
2023-01-23T16:30:56.571Z,63.91
2023-01-23T16:33:23.231Z,63.68
2023-01-23T16:35:51.441Z,64.07
2023-01-23T16:38:27.169Z,64.28
2023-01-23T16:40:56.676Z,64.32
2023-01-23T16:43:23.810Z,64.71
2023-01-23T16:45:54.219Z,64.30
2023-01-23T16:48:27.080Z,64.07
2023-01-23T16:51:03.971Z,64.35
2023-01-23T16:53:40.736Z,65.03
2023-01-23T16:56:14.729Z,64.78
2023-01-23T16:58:41.893Z,65.62
2023-01-23T17:01:22.901Z,64.69
2023-01-23T17:03:57.661Z,64.30
2023-01-23T17:06:24.201Z,64.97
2023-01-23T17:08:52.287Z,64.71
2023-01-23T17:11:26.579Z,64.30
2023-01-23T17:14:00.624Z,63.87
2023-01-23T17:16:28.313Z,63.37
2023-01-23T17:18:59.118Z,63.26
2023-01-23T17:21:33.586Z,63.19
2023-01-23T17:24:00.471Z,63.00
2023-01-23T17:26:27.194Z,62.27
2023-01-23T17:28:54.000Z,62.69
2023-01-23T17:31:26.523Z,61.84
2023-01-23T17:33:53.670Z,62.08
2023-01-23T17:36:20.190Z,62.48
2023-01-23T17:38:46.947Z,62.58
2023-01-23T17:41:15.818Z,62.44
2023-01-23T17:43:44.287Z,62.41
2023-01-23T17:46:29.599Z,62.91
2023-01-23T17:48:57.221Z,62.26
2023-01-23T17:51:25.759Z,62.20
2023-01-23T17:53:53.042Z,63.49
2023-01-23T17:56:19.556Z,62.89
2023-01-23T17:58:46.159Z,63.63
2023-01-23T18:01:22.176Z,64.00
2023-01-23T18:03:51.384Z,63.34
2023-01-23T18:06:19.181Z,63.70
2023-01-23T18:08:46.038Z,63.31
2023-01-23T18:11:24.149Z,62.86
2023-01-23T18:14:33.696Z,63.37
2023-01-23T18:17:00.578Z,62.52
2023-01-23T18:19:27.615Z,63.44
2023-01-23T18:21:57.217Z,62.67
2023-01-23T18:24:29.897Z,62.96
2023-01-23T18:27:21.633Z,63.13
2023-01-23T18:30:44.990Z,62.99
2023-01-23T18:33:47.947Z,63.20
2023-01-23T18:36:55.579Z,63.64
2023-01-23T18:39:47.021Z,63.88
2023-01-23T18:42:31.992Z,64.54
2023-01-23T18:45:20.686Z,64.35
2023-01-23T18:47:53.551Z,63.74
2023-01-23T18:50:22.880Z,64.07
2023-01-23T18:53:24.348Z,64.27
2023-01-23T18:56:30.417Z,64.72
2023-01-23T18:59:16.139Z,64.48
2023-01-23T19:01:53.706Z,63.72
2023-01-23T19:04:40.347Z,64.03
2023-01-23T19:07:18.983Z,63.93
2023-01-23T19:09:47.623Z,64.21
2023-01-23T19:12:29.059Z,62.86
2023-01-23T19:15:21.938Z,62.61
2023-01-23T19:18:18.704Z,62.87
2023-01-23T19:21:14.473Z,63.69
2023-01-23T19:23:57.690Z,63.31
2023-01-23T19:26:33.027Z,63.31
2023-01-23T19:29:19.120Z,62.56
2023-01-23T19:32:02.947Z,63.47
2023-01-23T19:34:30.485Z,62.98
2023-01-23T19:36:57.013Z,63.10
2023-01-23T19:39:23.553Z,62.83
2023-01-23T19:41:50.473Z,63.05
2023-01-23T19:44:20.171Z,63.56
2023-01-23T19:46:47.497Z,63.42
2023-01-23T19:49:14.145Z,63.55
2023-01-23T19:51:41.797Z,62.67
2023-01-23T19:54:13.176Z,62.68
2023-01-23T19:56:39.775Z,62.77
2023-01-23T19:59:07.423Z,64.10
2023-01-23T20:01:45.410Z,63.27
2023-01-23T20:04:22.126Z,64.04
2023-01-23T20:06:51.610Z,64.33
2023-01-23T20:09:18.239Z,63.75
2023-01-23T20:11:46.443Z,63.46
2023-01-23T20:14:12.979Z,64.17
2023-01-23T20:16:42.577Z,64.90
2023-01-23T20:19:15.581Z,64.32
2023-01-23T20:21:43.010Z,64.12
2023-01-23T20:24:09.587Z,64.61
2023-01-23T20:26:36.799Z,64.58
2023-01-23T20:29:04.986Z,63.68
2023-01-23T20:31:32.833Z,64.25
2023-01-23T20:33:59.697Z,64.19
2023-01-23T20:36:26.250Z,64.17
2023-01-23T20:38:52.759Z,64.51
2023-01-23T20:41:20.474Z,64.01
2023-01-23T20:43:47.879Z,63.88
2023-01-23T20:46:16.771Z,62.82
2023-01-23T20:48:45.137Z,62.94
2023-01-23T20:51:14.300Z,63.27
2023-01-23T20:53:41.562Z,63.67
2023-01-23T20:56:18.579Z,64.23
2023-01-23T20:59:07.621Z,64.26
2023-01-23T21:01:56.660Z,63.31
2023-01-23T21:04:28.409Z,63.64
2023-01-23T21:06:55.355Z,64.81
2023-01-23T21:09:23.038Z,64.74
2023-01-23T21:11:51.572Z,64.92
2023-01-23T21:14:19.412Z,65.47
2023-01-23T21:16:47.129Z,65.45
2023-01-23T21:19:15.389Z,65.71
2023-01-23T21:21:42.827Z,65.47
2023-01-23T21:24:10.030Z,65.82
2023-01-23T21:26:37.092Z,65.66
2023-01-23T21:29:04.710Z,65.72
2023-01-23T21:31:36.137Z,65.61
2023-01-23T21:34:06.939Z,64.82
2023-01-23T21:36:34.659Z,64.29
2023-01-23T21:39:01.973Z,64.28
2023-01-23T21:41:28.457Z,64.31
2023-01-23T21:43:55.058Z,63.99
2023-01-23T21:46:21.537Z,64.09
2023-01-23T21:48:48.120Z,63.71
2023-01-23T21:51:21.078Z,63.69
2023-01-23T21:53:50.308Z,63.70
2023-01-23T21:56:20.905Z,63.89
2023-01-23T21:58:48.414Z,64.32
2023-01-23T22:01:42.506Z,63.91
2023-01-23T22:04:13.314Z,63.40
2023-01-23T22:06:43.135Z,63.17
2023-01-23T22:09:15.387Z,63.38
2023-01-23T22:11:42.060Z,64.24
2023-01-23T22:14:08.503Z,64.42
2023-01-23T22:16:51.145Z,65.54
2023-01-23T22:19:24.594Z,65.27
2023-01-23T22:21:53.009Z,64.46
2023-01-23T22:24:19.765Z,64.44
2023-01-23T22:26:46.294Z,64.30
2023-01-23T22:29:13.933Z,63.96
2023-01-23T22:31:40.951Z,63.85
2023-01-23T22:34:07.577Z,63.10
2023-01-23T22:36:34.359Z,62.96
2023-01-23T22:39:00.885Z,62.63
2023-01-23T22:41:28.448Z,62.26
2023-01-23T22:43:59.035Z,62.84
2023-01-23T22:46:25.662Z,63.02
2023-01-23T22:48:52.204Z,63.26
2023-01-23T22:51:24.687Z,63.28
2023-01-23T22:53:53.659Z,63.48
2023-01-23T22:56:21.516Z,64.26
2023-01-23T22:58:50.343Z,64.35
2023-01-23T23:01:18.433Z,64.28
2023-01-23T23:03:46.074Z,64.72
2023-01-23T23:06:16.027Z,65.39
2023-01-23T23:08:47.131Z,65.21
2023-01-23T23:11:28.020Z,64.43
2023-01-23T23:13:56.654Z,64.02
2023-01-23T23:16:27.093Z,63.24
2023-01-23T23:18:56.207Z,63.32
2023-01-23T23:21:28.545Z,63.28
2023-01-23T23:23:59.755Z,63.23
2023-01-23T23:26:29.943Z,63.27
2023-01-23T23:28:56.825Z,62.96
2023-01-23T23:31:23.438Z,62.56
2023-01-23T23:33:50.252Z,62.74
2023-01-23T23:36:17.401Z,62.34
2023-01-23T23:38:44.214Z,61.99
2023-01-23T23:41:16.236Z,62.40
2023-01-23T23:43:43.966Z,62.27
2023-01-23T23:46:11.797Z,62.38
2023-01-23T23:48:39.787Z,62.67
2023-01-23T23:51:09.530Z,63.14
2023-01-23T23:53:36.886Z,63.94
2023-01-23T23:56:05.451Z,64.18
2023-01-23T23:58:34.938Z,64.32
